Time;durP1;ratioP1;P1;durP2;ratioP2;P2;SDS_P1;SDS_P2;PMS_P1;PMS_P2;Temp;Humidity;BMP_temperature;BMP_pressure;BME280_temperature;BME280_humidity;BME280_pressure;Samples;Min_cycle;Max_cycle;Signal;HPM_P1;HPM_P2
2022/01/14 00:01:59;;;;;;;901.20;817.73;;;-1.30;99.90;;;;;;4999117;28;20246;-83
2022/01/14 00:04:27;;;;;;;902.15;819.65;;;-1.20;99.90;;;;;;4996360;28;20450;-83
2022/01/14 00:06:56;;;;;;;889.13;807.05;;;-1.30;99.90;;;;;;5006212;28;20281;-82
2022/01/14 00:09:23;;;;;;;889.65;809.47;;;-1.30;99.90;;;;;;4996268;28;20199;-82
2022/01/14 00:11:55;;;;;;;892.50;808.90;;;-1.30;99.90;;;;;;5014177;28;20195;-82
2022/01/14 00:14:36;;;;;;;888.25;804.47;;;-1.40;99.90;;;;;;5012614;28;20848;-81
2022/01/14 00:17:06;;;;;;;891.10;808.87;;;-1.30;99.90;;;;;;4996038;28;20206;-83
2022/01/14 00:19:35;;;;;;;884.78;803.25;;;-1.30;99.90;;;;;;4999108;28;20476;-82
2022/01/14 00:22:07;;;;;;;888.80;808.60;;;-1.20;99.90;;;;;;5015605;28;20233;-80
2022/01/14 00:33:01;;;;;;;889.57;807.97;;;-1.30;99.90;;;;;;4996202;28;20484;-83
2022/01/14 00:35:28;;;;;;;887.90;807.17;;;-1.20;99.90;;;;;;5010030;28;20555;-83
2022/01/14 00:37:55;;;;;;;892.50;812.73;;;-1.20;99.90;;;;;;5022990;28;20464;-83
2022/01/14 00:40:22;;;;;;;886.83;807.50;;;-1.20;99.90;;;;;;5019089;28;20469;-83
2022/01/14 00:42:50;;;;;;;885.85;807.53;;;-1.20;99.90;;;;;;5015228;28;20448;-83
2022/01/14 00:45:17;;;;;;;899.08;820.05;;;-1.20;99.90;;;;;;4999991;28;20241;-83
2022/01/14 00:47:44;;;;;;;899.17;820.23;;;-1.30;99.90;;;;;;4997814;28;20199;-82
2022/01/14 00:50:15;;;;;;;895.83;814.73;;;-1.20;99.90;;;;;;5011625;28;20958;-83
2022/01/14 00:52:43;;;;;;;899.38;815.78;;;-1.10;99.90;;;;;;5019606;28;20460;-83
2022/01/14 00:55:12;;;;;;;889.57;806.27;;;-0.90;99.90;;;;;;5008125;28;20221;-84
2022/01/14 01:00:27;;;;;;;902.70;817.50;;;-0.60;99.90;;;;;;5011996;28;20569;-82
2022/01/14 01:02:54;;;;;;;901.50;816.60;;;-0.60;99.90;;;;;;5015117;28;20827;-83
2022/01/14 01:05:23;;;;;;;899.50;813.20;;;-0.40;99.90;;;;;;5014915;28;20469;-83
2022/01/14 01:08:00;;;;;;;887.33;799.97;;;-0.40;99.90;;;;;;5014968;28;20454;-81
2022/01/14 01:10:29;;;;;;;891.10;804.07;;;-0.30;99.90;;;;;;5014014;28;20453;-83
2022/01/14 01:13:01;;;;;;;890.93;804.57;;;-0.30;99.90;;;;;;5013954;28;20587;-82
2022/01/14 01:15:27;;;;;;;893.47;805.47;;;-0.20;99.90;;;;;;5014212;28;20492;-82
2022/01/14 01:17:55;;;;;;;898.70;812.80;;;-0.20;99.90;;;;;;5013239;28;20524;-83
2022/01/14 01:20:23;;;;;;;898.88;814.35;;;-0.30;99.90;;;;;;4994342;28;20458;-82
2022/01/14 01:22:54;;;;;;;904.60;821.00;;;-0.50;99.90;;;;;;4995169;28;20202;-83
2022/01/14 01:25:25;;;;;;;905.57;820.63;;;-0.70;99.90;;;;;;5004814;28;20480;-82
2022/01/14 01:27:53;;;;;;;910.63;826.87;;;-0.60;99.90;;;;;;5014150;28;20998;-83
2022/01/14 01:30:49;;;;;;;908.57;823.40;;;-0.60;99.90;;;;;;5014146;28;20461;-82
2022/01/14 01:33:15;;;;;;;914.00;829.63;;;-0.70;99.90;;;;;;5001522;28;20508;-83
2022/01/14 01:35:43;;;;;;;920.37;837.90;;;-0.70;99.90;;;;;;5012385;28;20481;-83
2022/01/14 01:38:16;;;;;;;917.00;835.10;;;-0.80;99.90;;;;;;4994004;28;20483;-83
2022/01/14 01:40:44;;;;;;;925.07;840.70;;;-1.00;99.90;;;;;;4994919;28;20903;-82
2022/01/14 01:43:12;;;;;;;927.60;844.17;;;-0.90;99.90;;;;;;4994419;28;20457;-83
2022/01/14 01:45:39;;;;;;;921.15;838.40;;;-0.90;99.90;;;;;;4994412;28;20474;-83
2022/01/14 01:48:06;;;;;;;919.10;839.07;;;-0.90;99.90;;;;;;5014153;28;20201;-82
2022/01/14 01:50:36;;;;;;;920.50;841.70;;;-1.00;99.90;;;;;;4996280;28;20458;-82
2022/01/14 01:53:05;;;;;;;954.23;874.43;;;-1.20;99.90;;;;;;4994410;28;20453;-83
2022/01/14 01:55:32;;;;;;;944.27;864.60;;;-1.30;99.90;;;;;;5005837;28;21049;-82
2022/01/14 01:57:59;;;;;;;958.93;879.53;;;-1.40;99.90;;;;;;4994477;28;20458;-83
2022/01/14 02:00:27;;;;;;;958.13;871.90;;;-1.40;99.90;;;;;;5008916;28;20460;-83
2022/01/14 02:02:56;;;;;;;960.70;875.30;;;-1.10;99.90;;;;;;5014161;28;21075;-82
2022/01/14 02:05:24;;;;;;;949.77;864.07;;;-1.00;99.90;;;;;;4999829;28;20470;-83
2022/01/14 02:07:51;;;;;;;951.30;866.13;;;-0.80;99.90;;;;;;4994250;28;20460;-82
2022/01/14 02:10:21;;;;;;;939.27;857.67;;;-0.90;99.90;;;;;;5004913;28;20456;-82
2022/01/14 02:12:50;;;;;;;932.80;852.37;;;-1.00;99.90;;;;;;5013976;28;20454;-83
2022/01/14 02:15:29;;;;;;;945.10;865.80;;;-1.20;99.90;;;;;;5001402;28;20844;-82
2022/01/14 02:18:27;;;;;;;943.03;861.63;;;-1.30;99.90;;;;;;4994591;28;20871;-83
2022/01/14 02:23:44;;;;;;;927.13;847.83;;;-1.50;99.90;;;;;;5001509;28;20965;-83
2022/01/14 02:26:12;;;;;;;925.67;846.50;;;-1.50;99.90;;;;;;4994042;28;20489;-82
2022/01/14 02:28:39;;;;;;;917.57;839.63;;;-1.50;99.90;;;;;;5005046;28;20197;-83
2022/01/14 02:31:08;;;;;;;912.92;836.05;;;-1.60;99.90;;;;;;5013650;28;20826;-82
2022/01/14 02:33:35;;;;;;;895.80;819.47;;;-1.70;99.90;;;;;;5003383;28;20211;-82
2022/01/14 02:36:04;;;;;;;898.20;823.20;;;-1.70;99.90;;;;;;4993887;28;20506;-82
2022/01/14 02:38:31;;;;;;;928.83;846.83;;;-1.80;99.90;;;;;;4993875;28;20230;-83
2022/01/14 02:40:59;;;;;;;926.63;845.73;;;-1.60;99.90;;;;;;4994627;28;20599;-82
2022/01/14 02:43:27;;;;;;;913.22;835.90;;;-1.50;99.90;;;;;;5002478;28;20453;-82
2022/01/14 02:45:57;;;;;;;909.38;832.88;;;-1.60;99.90;;;;;;5013633;28;20305;-83
2022/01/14 02:48:25;;;;;;;896.33;822.90;;;-1.70;99.90;;;;;;4997607;28;20199;-82
2022/01/14 02:50:57;;;;;;;904.40;828.17;;;-1.70;99.90;;;;;;4993698;28;20203;-83
2022/01/14 02:53:30;;;;;;;912.72;835.40;;;-1.80;99.90;;;;;;5009210;28;20663;-82
2022/01/14 02:56:00;;;;;;;896.30;821.70;;;-1.80;99.90;;;;;;5014039;28;20221;-82
2022/01/14 02:58:29;;;;;;;903.53;827.90;;;-1.90;99.90;;;;;;4998164;28;20563;-82
2022/01/14 03:00:59;;;;;;;919.65;842.40;;;-1.80;99.90;;;;;;4993916;28;20576;-83
2022/01/14 03:03:27;;;;;;;902.92;827.75;;;-1.90;99.90;;;;;;4997564;28;20553;-82
2022/01/14 03:05:55;;;;;;;894.80;819.00;;;-1.90;99.90;;;;;;4997125;28;20766;-82
2022/01/14 03:08:22;;;;;;;894.65;820.78;;;-2.00;99.90;;;;;;5010875;28;20218;-82
2022/01/14 03:10:54;;;;;;;913.08;836.35;;;-2.00;99.90;;;;;;5017382;28;20206;-82
2022/01/14 03:13:21;;;;;;;897.92;821.47;;;-1.90;99.90;;;;;;5006189;28;20206;-83
2022/01/14 03:15:48;;;;;;;900.53;824.70;;;-1.90;99.90;;;;;;5002976;28;20221;-82
2022/01/14 03:18:21;;;;;;;898.72;824.58;;;-1.90;99.90;;;;;;5006449;28;20198;-84
2022/01/14 03:20:58;;;;;;;898.03;824.28;;;-1.90;99.90;;;;;;4999766;28;20187;-83
2022/01/14 03:23:26;;;;;;;896.03;822.58;;;-2.00;99.90;;;;;;5006658;28;20194;-83
2022/01/14 03:25:55;;;;;;;899.63;825.67;;;-1.90;99.90;;;;;;4999806;28;20282;-83
2022/01/14 03:28:23;;;;;;;897.27;822.07;;;-1.90;99.90;;;;;;5018539;28;20483;-85
2022/01/14 03:30:53;;;;;;;895.55;820.03;;;-1.80;99.90;;;;;;5036228;28;20993;-83
2022/01/14 03:33:20;;;;;;;889.35;811.25;;;-1.80;99.90;;;;;;5026951;28;20197;-83
2022/01/14 03:35:51;;;;;;;902.58;823.80;;;-1.60;99.90;;;;;;5013353;28;20313;-83
2022/01/14 03:38:18;;;;;;;904.95;824.72;;;-1.50;99.90;;;;;;4997869;28;20195;-83
2022/01/14 03:40:45;;;;;;;907.53;826.05;;;-1.40;99.90;;;;;;4996722;28;20199;-83
2022/01/14 03:43:13;;;;;;;905.70;824.03;;;-1.30;99.90;;;;;;4998125;28;20207;-83
2022/01/14 03:45:41;;;;;;;913.70;832.45;;;-1.30;99.90;;;;;;5008086;28;20249;-83
2022/01/14 03:48:08;;;;;;;902.17;821.53;;;-1.10;99.90;;;;;;5016138;28;20194;-82
2022/01/14 03:53:19;;;;;;;911.63;833.08;;;-1.30;99.90;;;;;;4976401;28;20465;-82
2022/01/14 03:55:46;;;;;;;898.70;821.83;;;-1.40;99.90;;;;;;4974901;28;20223;-82
2022/01/14 03:58:14;;;;;;;900.15;822.85;;;-1.50;99.90;;;;;;5030490;28;20463;-83
2022/01/14 04:00:41;;;;;;;894.83;816.13;;;-1.50;99.90;;;;;;5034280;28;20761;-83
2022/01/14 04:03:08;;;;;;;910.53;834.17;;;-1.40;99.90;;;;;;5016458;28;20485;-82
2022/01/14 04:05:37;;;;;;;915.20;836.78;;;-1.60;99.90;;;;;;5014755;28;20219;-82
2022/01/14 04:08:06;;;;;;;918.40;839.33;;;-1.50;99.90;;;;;;5004995;28;20190;-83
2022/01/14 04:10:33;;;;;;;909.47;827.78;;;-1.30;99.90;;;;;;5014588;28;20199;-82
2022/01/14 04:13:04;;;;;;;913.67;832.80;;;-1.20;99.90;;;;;;5001579;28;20199;-83
2022/01/14 04:15:42;;;;;;;909.23;831.93;;;-1.20;99.90;;;;;;4997473;28;20256;-82
2022/01/14 04:18:12;;;;;;;915.45;837.97;;;-1.40;99.90;;;;;;5006973;28;20452;-82
2022/01/14 04:20:39;;;;;;;919.97;843.08;;;-1.40;99.90;;;;;;5035076;28;20205;-83
2022/01/14 04:23:07;;;;;;;916.77;838.73;;;-1.40;99.90;;;;;;5022201;28;20217;-83
2022/01/14 04:25:34;;;;;;;925.25;843.20;;;-1.20;99.90;;;;;;5015006;28;20487;-82
2022/01/14 04:28:02;;;;;;;924.58;844.63;;;-1.10;99.90;;;;;;5016967;28;20198;-83
2022/01/14 04:30:29;;;;;;;908.53;827.70;;;-1.20;99.90;;;;;;5035049;28;20690;-83
2022/01/14 04:32:58;;;;;;;915.40;838.40;;;-1.40;99.90;;;;;;5023922;28;20282;-83
2022/01/14 04:35:24;;;;;;;901.37;824.30;;;-1.40;99.90;;;;;;5013873;28;20485;-83
2022/01/14 04:37:52;;;;;;;908.85;829.45;;;-1.40;99.90;;;;;;5010199;28;20490;-83
2022/01/14 04:40:19;;;;;;;911.90;833.43;;;-1.40;99.90;;;;;;5001787;28;20201;-82
2022/01/14 04:42:46;;;;;;;915.60;840.10;;;-1.50;99.90;;;;;;5003865;28;20478;-83
2022/01/14 04:45:27;;;;;;;912.77;837.57;;;-1.50;99.90;;;;;;5008628;28;20849;-83
2022/01/14 04:47:54;;;;;;;912.55;837.55;;;-1.50;99.90;;;;;;5013020;28;20540;-83
2022/01/14 04:50:24;;;;;;;906.35;833.22;;;-1.60;99.90;;;;;;5014824;28;20198;-83
2022/01/14 04:52:52;;;;;;;916.10;841.53;;;-1.70;99.90;;;;;;4996640;28;20194;-82
2022/01/14 04:55:20;;;;;;;915.50;842.05;;;-1.70;99.90;;;;;;5012448;28;20220;-84
2022/01/14 04:57:47;;;;;;;917.97;842.33;;;-1.70;99.90;;;;;;4996213;28;20259;-84
2022/01/14 05:00:16;;;;;;;905.13;830.25;;;-1.60;99.90;;;;;;5010988;28;20592;-82
2022/01/14 05:02:44;;;;;;;897.63;825.45;;;-1.80;99.90;;;;;;5005414;28;20214;-84
2022/01/14 05:05:11;;;;;;;888.50;815.43;;;-1.70;99.90;;;;;;5014631;28;20226;-83
2022/01/14 05:07:42;;;;;;;897.03;824.45;;;-1.80;99.90;;;;;;5004670;28;20457;-83
2022/01/14 05:10:19;;;;;;;893.00;818.97;;;-1.80;99.90;;;;;;4999316;28;20198;-82
2022/01/14 05:12:46;;;;;;;889.88;816.33;;;-1.80;99.90;;;;;;5003757;28;20195;-83
2022/01/14 05:15:14;;;;;;;898.60;822.53;;;-1.70;99.90;;;;;;4995249;28;20219;-84
2022/01/14 05:17:41;;;;;;;913.47;838.80;;;-1.60;99.90;;;;;;5013702;28;20198;-82
2022/01/14 05:20:10;;;;;;;914.75;840.58;;;-1.60;99.90;;;;;;5016191;28;20200;-83
2022/01/14 05:22:38;;;;;;;921.03;845.95;;;-1.60;99.90;;;;;;5013439;28;20214;-83
2022/01/14 05:25:06;;;;;;;913.60;838.30;;;-1.60;99.90;;;;;;5009952;28;20216;-83
2022/01/14 05:27:34;;;;;;;909.22;833.47;;;-1.50;99.90;;;;;;5034427;28;20454;-84
2022/01/14 05:30:01;;;;;;;916.47;842.70;;;-1.60;99.90;;;;;;5021922;28;20200;-84
2022/01/14 05:32:28;;;;;;;924.03;851.25;;;-1.50;99.90;;;;;;5014179;28;20194;-84
2022/01/14 05:34:55;;;;;;;904.03;831.72;;;-1.70;99.90;;;;;;5014518;28;20218;-83
2022/01/14 05:37:21;;;;;;;883.58;814.17;;;-1.70;99.90;;;;;;5010417;28;20568;-83
2022/01/14 05:39:49;;;;;;;898.67;829.20;;;-1.90;99.90;;;;;;5014372;28;20194;-83
2022/01/14 05:42:17;;;;;;;870.90;801.55;;;-2.00;99.90;;;;;;5014609;28;20229;-83
2022/01/14 05:44:44;;;;;;;881.92;812.47;;;-2.00;99.90;;;;;;5033756;28;20598;-84
2022/01/14 05:47:10;;;;;;;877.08;809.80;;;-2.00;99.90;;;;;;5036012;28;20194;-83
2022/01/14 05:49:37;;;;;;;871.15;803.05;;;-2.10;99.90;;;;;;5034638;28;20547;-82
2022/01/14 05:52:04;;;;;;;888.28;817.00;;;-2.20;99.90;;;;;;5034685;28;20193;-83
2022/01/14 05:54:31;;;;;;;877.03;807.10;;;-2.20;99.90;;;;;;5034762;28;20212;-83
2022/01/14 05:56:59;;;;;;;886.80;815.70;;;-2.10;99.90;;;;;;5020015;28;20201;-82
2022/01/14 05:59:26;;;;;;;891.30;820.00;;;-2.20;99.90;;;;;;5012274;28;20579;-83
2022/01/14 06:01:53;;;;;;;890.17;815.53;;;-2.10;99.90;;;;;;5013925;28;20194;-83
2022/01/14 06:04:20;;;;;;;908.72;834.72;;;-2.00;99.90;;;;;;5011397;28;20207;-83
2022/01/14 06:06:46;;;;;;;873.08;802.08;;;-2.10;99.90;;;;;;4993268;28;20210;-82
2022/01/14 06:09:17;;;;;;;874.78;804.88;;;-2.00;99.90;;;;;;4994068;28;20203;-83
2022/01/14 06:11:43;;;;;;;863.65;795.88;;;-2.00;99.90;;;;;;5013589;28;20198;-84
2022/01/14 06:14:12;;;;;;;865.35;795.15;;;-2.20;99.90;;;;;;5004479;28;20195;-82
2022/01/14 06:16:38;;;;;;;868.70;798.92;;;-2.20;99.90;;;;;;4993290;28;20230;-82
2022/01/14 06:19:05;;;;;;;857.78;787.15;;;-2.10;99.90;;;;;;4998772;28;20191;-82
2022/01/14 06:21:32;;;;;;;866.53;795.38;;;-2.00;99.90;;;;;;5009128;28;20203;-82
2022/01/14 06:23:58;;;;;;;869.60;798.97;;;-2.00;99.90;;;;;;5003755;28;20699;-84
2022/01/14 06:26:25;;;;;;;862.50;791.30;;;-1.90;99.90;;;;;;5001534;28;20214;-83
2022/01/14 06:28:52;;;;;;;863.08;793.30;;;-1.90;99.90;;;;;;5004726;28;20190;-85
2022/01/14 06:31:20;;;;;;;865.88;797.80;;;-1.90;99.90;;;;;;5003937;28;20201;-83
2022/01/14 06:33:47;;;;;;;862.20;793.10;;;-1.90;99.90;;;;;;5030792;28;20186;-84
2022/01/14 06:36:14;;;;;;;865.83;796.28;;;-2.10;99.90;;;;;;5031231;28;20221;-82
2022/01/14 06:38:41;;;;;;;871.90;802.50;;;-2.00;99.90;;;;;;4997336;28;20230;-83
2022/01/14 06:41:08;;;;;;;861.70;792.75;;;-2.10;99.90;;;;;;5005202;28;20218;-83
2022/01/14 06:43:35;;;;;;;862.88;793.47;;;-2.10;99.90;;;;;;4998910;28;20219;-82
2022/01/14 06:46:02;;;;;;;864.13;794.17;;;-2.00;99.90;;;;;;4998091;28;20302;-84
2022/01/14 06:48:30;;;;;;;865.92;796.17;;;-2.10;99.90;;;;;;5018463;28;20198;-82
2022/01/14 06:50:58;;;;;;;860.67;790.92;;;-2.10;99.90;;;;;;5027804;28;20195;-83
2022/01/14 06:53:24;;;;;;;874.83;806.35;;;-2.00;99.90;;;;;;5006407;28;20221;-83
2022/01/14 06:55:51;;;;;;;844.30;777.50;;;-2.00;99.90;;;;;;4996906;28;20243;-82
2022/01/14 06:58:18;;;;;;;853.17;785.85;;;-2.10;99.90;;;;;;4996780;28;20195;-83
2022/01/14 07:00:45;;;;;;;853.67;785.03;;;-2.10;99.90;;;;;;5005555;28;20191;-83
2022/01/14 07:03:23;;;;;;;849.30;780.95;;;-2.10;99.90;;;;;;5011481;28;20215;-82
2022/01/14 07:06:10;;;;;;;859.95;793.30;;;-2.10;99.90;;;;;;5002419;28;20217;-83
2022/01/14 07:08:45;;;;;;;848.55;780.30;;;-2.20;99.90;;;;;;5016627;28;20357;-82
2022/01/14 07:11:36;;;;;;;860.85;794.15;;;-2.20;99.90;;;;;;5008700;28;20205;-83
2022/01/14 07:23:12;;;;;;;835.33;770.60;;;-2.40;99.90;;;;;;4994867;28;20219;-82
2022/01/14 07:29:28;;;;;;;832.10;766.20;;;-2.50;99.90;;;;;;5014239;28;20252;-82
2022/01/14 07:42:25;;;;;;;814.67;750.45;;;-2.40;99.90;;;;;;4961664;28;20203;-83
2022/01/14 07:48:49;;;;;;;833.17;764.75;;;-2.50;99.90;;;;;;5012192;28;20212;-83
2022/01/14 07:55:22;;;;;;;;;;;;;;;;;;;;;
2022/01/14 08:12:08;;;;;;;885.45;795.90;;;-1.10;99.90;;;;;;4947671;28;20982;-83
2022/01/14 08:15:23;;;;;;;898.80;807.23;;;-0.80;99.90;;;;;;4991259;28;20245;-83
2022/01/14 08:35:18;;;;;;;;;;;;;;;;;;;;;
2022/01/14 08:52:31;;;;;;;1505.20;811.37;;;0.80;99.90;;;;;;4974755;28;20451;-84
2022/01/14 08:55:31;;;;;;;1354.77;820.30;;;0.70;99.90;;;;;;5042479;22;20529;-84
2022/01/14 09:10:38;;;;;;;1231.27;792.83;;;0.80;99.90;;;;;;4900517;29;20473;-83
2022/01/14 09:13:44;;;;;;;;;;;;;;;;;;;;;
2022/01/14 09:23:17;;;;;;;1125.13;811.43;;;0.50;99.90;;;;;;4970874;28;20994;-83
2022/01/14 09:32:25;;;;;;;1005.17;798.03;;;0.70;99.90;;;;;;4915867;29;20450;-83
2022/01/14 09:38:58;;;;;;;1103.57;824.63;;;0.80;99.90;;;;;;4972455;28;20981;-83
2022/01/14 09:42:16;;;;;;;;;;;;;;;;;;;;;
2022/01/14 09:45:20;;;;;;;;;;;;;;;;;;;;;
2022/01/14 09:47:57;;;;;;;1048.70;787.73;;;1.00;99.90;;;;;;4974212;28;20455;-83
2022/01/14 09:50:49;;;;;;;1032.13;796.77;;;1.10;99.90;;;;;;4974174;28;21002;-83
2022/01/14 09:53:22;;;;;;;1091.93;800.03;;;1.10;99.90;;;;;;4974622;28;20463;-84
2022/01/14 09:56:22;;;;;;;1053.80;799.00;;;1.10;99.90;;;;;;4974265;28;20483;-84
2022/01/14 10:02:21;;;;;;;1279.27;822.07;;;1.20;99.90;;;;;;4973360;28;21032;-83
2022/01/14 10:08:55;;;;;;;1003.43;822.03;;;1.40;99.90;;;;;;4965147;28;20558;-84
2022/01/14 10:11:59;;;;;;;1140.30;834.50;;;1.40;99.90;;;;;;4973030;28;20501;-84
2022/01/14 10:21:35;;;;;;;;;;;;;;;;;;;;;
2022/01/14 10:27:06;;;;;;;1192.70;810.10;;;1.90;99.90;;;;;;4975401;28;20553;-84
2022/01/14 10:29:50;;;;;;;1511.90;830.20;;;2.00;99.90;;;;;;4977345;28;20458;-84
2022/01/14 10:32:41;;;;;;;1150.27;816.27;;;2.00;99.90;;;;;;4977502;28;20450;-84
2022/01/14 10:41:49;;;;;;;1391.23;838.20;;;2.20;99.90;;;;;;4936063;29;20444;-84
2022/01/14 10:44:45;;;;;;;1663.88;854.42;;;2.30;99.90;;;;;;4936375;29;20463;-84
2022/01/14 10:57:16;;;;;;;1999.90;861.63;;;2.60;99.90;;;;;;4976036;28;20467;-85
2022/01/14 11:03:31;;;;;;;1563.03;842.03;;;3.10;99.90;;;;;;4968159;28;20920;-85
2022/01/14 11:09:24;;;;;;;1579.10;832.70;;;3.20;99.90;;;;;;4977692;28;20493;-86
2022/01/14 11:12:11;;;;;;;1856.23;845.03;;;3.20;99.90;;;;;;4977590;28;20450;-85
2022/01/14 11:15:10;;;;;;;1588.80;849.10;;;3.20;99.90;;;;;;4978175;28;20546;-84
2022/01/14 11:24:23;;;;;;;1741.67;834.40;;;3.00;99.90;;;;;;4955169;28;20529;-85
2022/01/14 11:30:07;;;;;;;1430.63;831.10;;;3.00;99.90;;;;;;4976071;28;20455;-85
2022/01/14 11:33:08;;;;;;;1348.33;823.90;;;2.90;99.90;;;;;;4978194;28;20834;-85
2022/01/14 11:36:22;;;;;;;1549.50;819.67;;;3.00;99.90;;;;;;5008115;22;20913;-85
2022/01/14 11:39:21;;;;;;;1353.63;827.77;;;3.00;99.90;;;;;;5076244;28;20457;-84
2022/01/14 11:42:19;;;;;;;1664.53;824.13;;;3.10;99.90;;;;;;5076634;28;20451;-84
2022/01/14 11:45:28;;;;;;;1405.40;817.70;;;3.20;99.90;;;;;;5076473;28;20509;-85
2022/01/14 11:55:17;;;;;;;1452.20;815.57;;;3.40;99.90;;;;;;5075056;28;20446;-85
2022/01/14 12:11:24;;;;;;;1386.30;814.30;;;3.90;99.90;;;;;;5074134;28;20486;-85
2022/01/14 12:14:44;;;;;;;1180.07;808.33;;;4.00;99.90;;;;;;5074434;28;20531;-85
2022/01/14 12:17:42;;;;;;;1062.20;783.90;;;4.20;99.90;;;;;;5074524;28;20862;-84
2022/01/14 12:20:46;;;;;;;1090.40;759.63;;;4.20;99.90;;;;;;5075424;28;20453;-82
2022/01/14 12:24:01;;;;;;;1336.78;808.42;;;4.00;99.90;;;;;;5038197;28;20507;-84
2022/01/14 12:33:41;;;;;;;1016.63;706.17;;;4.20;99.90;;;;;;5021845;28;20452;-84
2022/01/14 12:36:47;;;;;;;970.10;704.23;;;4.30;99.90;;;;;;5072986;28;20485;-84
2022/01/14 12:39:29;;;;;;;899.07;698.07;;;4.20;99.90;;;;;;5073413;28;20974;-84
2022/01/14 12:45:33;;;;;;;958.83;720.70;;;4.00;99.90;;;;;;5070321;28;20463;-84
2022/01/14 12:48:46;;;;;;;992.40;729.47;;;4.00;99.90;;;;;;5073453;28;20533;-84
2022/01/14 13:03:18;;;;;;;820.70;689.20;;;4.10;99.90;;;;;;5052025;28;20455;-84
2022/01/14 13:06:21;;;;;;;847.57;684.00;;;4.00;99.90;;;;;;5052419;28;20475;-84
2022/01/14 13:15:43;;;;;;;860.97;657.70;;;4.20;99.90;;;;;;5023738;28;20466;-83
2022/01/14 13:18:47;;;;;;;835.40;660.13;;;4.10;99.90;;;;;;5052749;28;20451;-83
2022/01/14 13:35:19;;;;;;;;;;;;;;;;;;;;;
2022/01/14 13:38:13;;;;;;;889.27;659.27;;;4.10;99.90;;;;;;4992229;28;20541;-82
2022/01/14 13:41:09;;;;;;;864.23;662.37;;;4.00;99.90;;;;;;4993575;28;21148;-82
2022/01/14 13:47:11;;;;;;;894.43;652.33;;;4.20;99.90;;;;;;4982778;28;20454;-83
2022/01/14 13:50:26;;;;;;;888.80;649.67;;;4.10;99.90;;;;;;4994477;28;20537;-83
2022/01/14 13:56:50;;;;;;;856.70;656.57;;;4.20;99.90;;;;;;5022461;23;20497;-83
2022/01/14 14:06:15;;;;;;;861.40;639.43;;;4.00;99.90;;;;;;4969727;28;20572;-83
2022/01/14 14:08:56;;;;;;;871.13;651.23;;;4.00;99.90;;;;;;4974528;28;20450;-83
2022/01/14 14:20:32;;;;;;;789.63;631.93;;;3.90;99.90;;;;;;4980898;28;20533;-82
2022/01/14 14:36:00;;;;;;;792.90;635.53;;;3.80;99.90;;;;;;5001778;28;20551;-82
2022/01/14 14:38:29;;;;;;;818.23;636.03;;;3.70;99.90;;;;;;5031870;23;20567;-82
2022/01/14 14:40:59;;;;;;;833.93;647.10;;;3.70;99.90;;;;;;5017370;28;20823;-82
2022/01/14 14:43:26;;;;;;;808.57;643.93;;;3.70;99.90;;;;;;5017044;28;20449;-81
2022/01/14 14:45:52;;;;;;;795.70;643.77;;;3.70;99.90;;;;;;5016153;28;20477;-81
2022/01/14 14:48:22;;;;;;;768.10;627.10;;;3.70;99.90;;;;;;5005288;28;20482;-82
2022/01/14 14:50:48;;;;;;;737.23;627.80;;;3.70;99.90;;;;;;4996129;28;20477;-81
2022/01/14 14:53:15;;;;;;;805.50;634.53;;;3.70;99.90;;;;;;4996773;28;20801;-81
2022/01/14 14:55:42;;;;;;;805.60;630.57;;;3.80;99.90;;;;;;4996499;28;20450;-81
2022/01/14 14:58:08;;;;;;;782.73;628.80;;;3.80;99.90;;;;;;5005971;28;20478;-80
2022/01/14 15:00:35;;;;;;;786.53;637.97;;;3.70;99.90;;;;;;5018994;28;20460;-81
2022/01/14 15:03:06;;;;;;;770.77;627.67;;;3.70;99.90;;;;;;5017105;28;20450;-81
2022/01/14 15:05:34;;;;;;;777.93;626.57;;;3.70;99.90;;;;;;4999279;28;20478;-81
2022/01/14 15:08:01;;;;;;;781.53;633.07;;;3.80;99.90;;;;;;5000046;28;20478;-81
2022/01/14 15:10:27;;;;;;;792.20;626.93;;;3.70;99.90;;;;;;4999885;28;20454;-81
2022/01/14 15:12:54;;;;;;;769.97;635.80;;;3.80;99.90;;;;;;5001480;28;20465;-81
2022/01/14 15:15:34;;;;;;;815.93;643.83;;;3.80;99.90;;;;;;5012524;28;20441;-81
2022/01/14 15:18:13;;;;;;;764.57;634.67;;;3.80;99.90;;;;;;5018695;28;20488;-81
2022/01/14 15:20:42;;;;;;;804.30;652.80;;;3.80;99.90;;;;;;5018389;28;20449;-81
2022/01/14 15:23:10;;;;;;;770.80;641.37;;;3.80;99.90;;;;;;5007299;28;20517;-81
2022/01/14 15:25:37;;;;;;;796.90;638.57;;;3.80;99.90;;;;;;4999209;28;20478;-81
2022/01/14 15:28:05;;;;;;;806.37;651.80;;;3.80;99.90;;;;;;4999517;28;20478;-81
2022/01/14 15:30:32;;;;;;;783.57;640.53;;;3.70;99.90;;;;;;4998906;28;20750;-81
2022/01/14 15:32:59;;;;;;;807.77;643.20;;;3.70;99.90;;;;;;4999508;28;20875;-81
2022/01/14 15:35:26;;;;;;;814.20;656.97;;;3.70;99.90;;;;;;4999405;28;20457;-81
2022/01/14 15:37:54;;;;;;;808.63;652.63;;;3.60;99.90;;;;;;4998961;28;20489;-81
2022/01/14 15:40:23;;;;;;;808.43;656.67;;;3.70;99.90;;;;;;4998803;28;20458;-81
2022/01/14 15:42:52;;;;;;;824.33;655.07;;;3.60;99.90;;;;;;4998505;28;20975;-81
2022/01/14 15:45:20;;;;;;;809.70;676.90;;;3.50;99.90;;;;;;4999340;28;20486;-82
2022/01/14 15:47:46;;;;;;;833.93;660.13;;;3.60;99.90;;;;;;4998531;28;20481;-81
2022/01/14 15:50:15;;;;;;;848.53;667.03;;;3.50;99.90;;;;;;4998684;28;20542;-81
2022/01/14 15:52:42;;;;;;;863.00;667.10;;;3.50;99.90;;;;;;4998385;28;20458;-81
2022/01/14 15:55:11;;;;;;;840.57;664.87;;;3.50;99.90;;;;;;4998931;28;20454;-81
2022/01/14 15:57:38;;;;;;;865.67;660.77;;;3.50;99.90;;;;;;4998696;28;20990;-81
2022/01/14 16:00:07;;;;;;;905.87;688.37;;;3.50;99.90;;;;;;4998887;28;20458;-81
2022/01/14 16:02:35;;;;;;;867.13;695.87;;;3.50;99.90;;;;;;4998840;28;20462;-81
2022/01/14 16:05:02;;;;;;;886.50;690.40;;;3.50;99.90;;;;;;4998874;28;20478;-81
2022/01/14 16:07:29;;;;;;;898.53;687.80;;;3.40;99.90;;;;;;4999551;28;20492;-81
2022/01/14 16:09:59;;;;;;;845.13;686.77;;;3.40;99.90;;;;;;4997418;28;20636;-81
2022/01/14 16:12:31;;;;;;;854.90;684.10;;;3.50;99.90;;;;;;4998878;28;20454;-81
2022/01/14 16:14:58;;;;;;;950.47;684.90;;;3.40;99.90;;;;;;4998802;28;20458;-81
2022/01/14 16:17:24;;;;;;;841.53;685.07;;;3.40;99.90;;;;;;4998732;28;20482;-82
2022/01/14 16:19:51;;;;;;;826.87;676.23;;;3.40;99.90;;;;;;4997834;28;20454;-81
2022/01/14 16:22:18;;;;;;;844.87;681.77;;;3.40;99.90;;;;;;4998938;28;20466;-82
2022/01/14 16:24:45;;;;;;;869.63;678.03;;;3.40;99.90;;;;;;4998445;28;20458;-81
2022/01/14 16:27:12;;;;;;;860.00;695.37;;;3.40;99.90;;;;;;4998579;28;20829;-81
2022/01/14 16:29:45;;;;;;;877.23;706.10;;;3.40;99.90;;;;;;4998791;28;20907;-81
2022/01/14 16:32:12;;;;;;;860.17;702.47;;;3.40;99.90;;;;;;4996563;28;20826;-81
2022/01/14 16:34:40;;;;;;;905.40;697.90;;;3.30;99.90;;;;;;4998012;28;20465;-81
2022/01/14 16:37:09;;;;;;;914.50;697.07;;;3.40;99.90;;;;;;4997779;28;20458;-81
2022/01/14 16:39:36;;;;;;;894.80;693.87;;;3.30;99.90;;;;;;4998367;28;21010;-80
2022/01/14 16:42:04;;;;;;;886.40;696.67;;;3.30;99.90;;;;;;4998320;28;20461;-81
2022/01/14 16:44:31;;;;;;;884.30;690.07;;;3.40;99.90;;;;;;4998640;28;20458;-81
2022/01/14 16:46:59;;;;;;;899.77;703.73;;;3.30;99.90;;;;;;4998081;28;20486;-81
2022/01/14 16:49:25;;;;;;;912.37;701.70;;;3.30;99.90;;;;;;4997977;28;20512;-81
2022/01/14 16:51:52;;;;;;;884.50;696.50;;;3.40;99.90;;;;;;4998502;28;20951;-81
2022/01/14 16:54:19;;;;;;;910.43;691.30;;;3.40;99.90;;;;;;4998258;28;20453;-82
2022/01/14 16:56:46;;;;;;;942.90;684.37;;;3.30;99.90;;;;;;4998091;28;20454;-82
2022/01/14 16:59:13;;;;;;;906.40;693.43;;;3.30;99.90;;;;;;4998504;28;20485;-82
2022/01/14 17:01:40;;;;;;;925.27;698.40;;;3.30;99.90;;;;;;4998296;28;20454;-81
2022/01/14 17:04:08;;;;;;;935.67;689.63;;;3.30;99.90;;;;;;4999124;28;20465;-82
2022/01/14 17:06:35;;;;;;;988.07;708.70;;;3.30;99.90;;;;;;5003169;28;20481;-82
2022/01/14 17:09:02;;;;;;;951.83;696.83;;;3.20;99.90;;;;;;5002653;28;20481;-81
2022/01/14 17:11:29;;;;;;;944.83;711.03;;;3.20;99.90;;;;;;5001412;28;20458;-81
2022/01/14 17:13:56;;;;;;;931.40;714.30;;;3.30;99.90;;;;;;5002714;28;20450;-81
2022/01/14 17:16:23;;;;;;;948.40;715.83;;;3.30;99.90;;;;;;5000476;28;20453;-80
2022/01/14 17:18:50;;;;;;;947.90;718.87;;;3.30;99.90;;;;;;5000414;28;20481;-82
2022/01/14 17:21:18;;;;;;;1006.17;751.50;;;3.30;99.90;;;;;;4998610;28;20463;-81